createdAt,value
2022-12-19T00:00:47.208Z,97809.66
2022-12-19T00:03:13.678Z,97807.97
2022-12-19T00:05:40.867Z,97819.06
2022-12-19T00:08:17.271Z,97814.91
2022-12-19T00:10:44.596Z,97811.53
2022-12-19T00:13:10.975Z,97812.53
2022-12-19T00:15:37.357Z,97819.31
2022-12-19T00:18:03.959Z,97811.84
2022-12-19T00:20:30.333Z,97809.50
2022-12-19T00:22:57.840Z,97813.88
2022-12-19T00:25:24.241Z,97821.50
2022-12-19T00:27:51.372Z,97822.28
2022-12-19T00:30:17.829Z,97822.28
2022-12-19T00:32:44.308Z,97815.44
2022-12-19T00:35:10.763Z,97824.81
2022-12-19T00:37:38.316Z,97815.50
2022-12-19T00:40:08.144Z,97813.81
2022-12-19T00:42:34.520Z,97810.47
2022-12-19T00:45:00.916Z,97809.66
2022-12-19T00:47:27.294Z,97814.75
2022-12-19T00:49:53.703Z,97814.69
2022-12-19T00:52:20.121Z,97824.09
2022-12-19T00:54:48.044Z,97814.75
2022-12-19T00:57:14.505Z,97824.97
2022-12-19T00:59:40.981Z,97818.13
2022-12-19T01:02:07.500Z,97816.47
2022-12-19T01:04:38.387Z,97818.19
2022-12-19T01:07:08.274Z,97816.47
2022-12-19T01:09:35.341Z,97813.22
2022-12-19T01:12:24.452Z,97816.72
2022-12-19T01:14:52.824Z,97824.31
2022-12-19T01:17:19.196Z,97820.06
2022-12-19T01:19:45.607Z,97821.84
2022-12-19T01:22:12.762Z,97814.28
2022-12-19T01:24:39.615Z,97819.22
2022-12-19T01:27:06.018Z,97809.84
2022-12-19T01:29:32.628Z,97814.25
2022-12-19T01:32:00.994Z,97815.22
2022-12-19T01:34:27.726Z,97805.06
2022-12-19T01:36:54.172Z,97806.06
2022-12-19T01:39:20.585Z,97808.66
2022-12-19T01:41:48.980Z,97812.88
2022-12-19T01:44:15.450Z,97803.47
2022-12-19T01:46:46.023Z,97800.00
2022-12-19T01:49:18.063Z,97805.22
2022-12-19T01:51:49.294Z,97797.88
2022-12-19T01:54:19.846Z,97798.03
2022-12-19T01:56:49.378Z,97796.31
2022-12-19T01:59:19.419Z,97791.22
2022-12-19T02:01:51.565Z,97794.69
2022-12-19T02:04:19.635Z,97793.97
2022-12-19T02:06:47.049Z,97796.50
2022-12-19T02:09:13.518Z,97790.59
2022-12-19T02:11:39.951Z,97798.13
2022-12-19T02:14:06.733Z,97800.53
2022-12-19T02:16:40.638Z,97796.19
2022-12-19T02:19:07.045Z,97797.88
2022-12-19T02:21:51.100Z,97793.72
2022-12-19T02:24:39.963Z,97785.50
2022-12-19T02:27:37.141Z,97771.06
2022-12-19T02:30:10.442Z,97770.97
2022-12-19T02:32:49.816Z,97765.03
2022-12-19T02:35:21.881Z,97766.72
2022-12-19T02:37:50.260Z,97758.28
2022-12-19T02:40:23.704Z,97748.13
2022-12-19T02:42:54.492Z,97745.69
2022-12-19T02:45:28.782Z,97746.47
2022-12-19T02:47:56.015Z,97744.81
2022-12-19T02:50:22.519Z,97743.06
2022-12-19T02:52:49.361Z,97745.69
2022-12-19T02:55:18.805Z,97737.97
2022-12-19T02:57:57.459Z,97739.66
2022-12-19T03:00:25.514Z,97751.44
2022-12-19T03:03:00.404Z,97743.06
2022-12-19T03:05:46.010Z,97744.81
2022-12-19T03:08:31.010Z,97738.88
2022-12-19T03:11:01.997Z,97736.31
2022-12-19T03:13:37.714Z,97739.69
2022-12-19T03:16:05.490Z,97733.00
2022-12-19T03:18:33.501Z,97736.44
2022-12-19T03:21:06.493Z,97733.88
2022-12-19T03:23:32.930Z,97744.06
2022-12-19T03:26:05.129Z,97741.66
2022-12-19T03:28:37.027Z,97739.25
2022-12-19T03:31:04.215Z,97740.94
2022-12-19T03:33:32.880Z,97741.69
2022-12-19T03:36:01.532Z,97743.25
2022-12-19T03:38:28.420Z,97736.41
2022-12-19T03:40:55.369Z,97734.69
2022-12-19T03:43:24.116Z,97736.44
2022-12-19T03:45:55.478Z,97733.88
2022-12-19T03:48:28.271Z,97730.50
2022-12-19T03:51:07.515Z,97735.66
2022-12-19T03:53:57.268Z,97731.41
2022-12-19T03:56:32.498Z,97727.84
2022-12-19T03:59:07.119Z,97715.06
2022-12-19T04:01:34.589Z,97722.00
2022-12-19T04:04:02.692Z,97718.66
2022-12-19T04:06:30.490Z,97710.91
2022-12-19T04:08:57.938Z,97702.38
2022-12-19T04:11:26.946Z,97703.13
2022-12-19T04:13:56.595Z,97695.53
2022-12-19T04:16:33.447Z,97702.47
2022-12-19T04:19:04.763Z,97704.94
2022-12-19T04:21:33.123Z,97705.66
2022-12-19T04:24:02.912Z,97693.13
2022-12-19T04:26:30.729Z,97695.47
2022-12-19T04:28:59.839Z,97699.66
2022-12-19T04:31:26.427Z,97700.47
2022-12-19T04:33:52.829Z,97695.41
2022-12-19T04:36:19.526Z,97699.56
2022-12-19T04:38:45.959Z,97699.59
2022-12-19T04:41:12.575Z,97707.25
2022-12-19T04:43:38.969Z,97702.91
2022-12-19T04:46:05.455Z,97712.19
2022-12-19T04:48:31.966Z,97712.03
2022-12-19T04:50:58.396Z,97710.22
2022-12-19T04:53:24.831Z,97716.06
2022-12-19T04:55:51.237Z,97710.13
2022-12-19T04:58:21.851Z,97722.88
2022-12-19T05:00:48.940Z,97726.19
2022-12-19T05:03:15.394Z,97705.66
2022-12-19T05:05:41.806Z,97707.34
2022-12-19T05:08:08.580Z,97700.59
2022-12-19T05:10:36.121Z,97700.78
2022-12-19T05:13:02.656Z,97709.34
2022-12-19T05:15:29.072Z,97712.72
2022-12-19T05:17:55.434Z,97694.69
2022-12-19T05:20:21.836Z,97687.91
2022-12-19T05:22:48.277Z,97698.00
2022-12-19T05:25:14.688Z,97698.06
2022-12-19T05:27:41.136Z,97699.78
2022-12-19T05:30:07.793Z,97698.81
2022-12-19T05:32:34.855Z,97695.38
2022-12-19T05:35:01.295Z,97697.91
2022-12-19T05:37:27.667Z,97696.25
2022-12-19T05:39:54.063Z,97698.06
2022-12-19T05:42:20.490Z,97701.41
2022-12-19T05:44:46.903Z,97703.81
2022-12-19T05:47:13.312Z,97712.22
2022-12-19T05:49:39.696Z,97705.31
2022-12-19T05:52:06.073Z,97701.19
2022-12-19T05:54:32.549Z,97707.84
2022-12-19T05:56:58.914Z,97697.75
2022-12-19T05:59:26.183Z,97702.00
2022-12-19T06:01:53.734Z,97704.47
2022-12-19T06:04:20.224Z,97701.06
2022-12-19T06:06:46.599Z,97703.63
2022-12-19T06:09:13.026Z,97699.47
2022-12-19T06:11:39.405Z,97708.00
2022-12-19T06:14:05.788Z,97703.66
2022-12-19T06:16:32.232Z,97711.38
2022-12-19T06:18:58.665Z,97715.50
2022-12-19T06:21:25.114Z,97718.91
2022-12-19T06:23:51.539Z,97723.97
2022-12-19T06:26:20.312Z,97713.69
2022-12-19T06:28:53.351Z,97719.59
2022-12-19T06:31:20.861Z,97720.59
2022-12-19T06:33:47.326Z,97714.69
2022-12-19T06:36:13.796Z,97708.72
2022-12-19T06:38:40.485Z,97701.88
2022-12-19T06:41:25.604Z,97716.28
2022-12-19T06:43:53.869Z,97712.94
2022-12-19T06:46:20.502Z,97713.03
2022-12-19T06:48:46.965Z,97708.84
2022-12-19T06:51:13.479Z,97716.56
2022-12-19T06:53:40.379Z,97712.25
2022-12-19T06:56:07.026Z,97710.53
2022-12-19T06:58:33.694Z,97709.56
2022-12-19T07:01:00.258Z,97713.78
2022-12-19T07:03:29.709Z,97718.81
2022-12-19T07:05:56.100Z,97710.34
2022-12-19T07:08:22.534Z,97711.09
2022-12-19T07:10:49.079Z,97710.19
2022-12-19T07:13:15.567Z,97712.00
2022-12-19T07:15:42.123Z,97709.56
2022-12-19T07:18:09.533Z,97715.50
2022-12-19T07:20:39.594Z,97708.66
2022-12-19T07:23:10.055Z,97711.19
2022-12-19T07:25:37.463Z,97702.53
2022-12-19T07:28:03.899Z,97702.53
2022-12-19T07:30:30.472Z,97711.06
2022-12-19T07:32:56.976Z,97713.72
2022-12-19T07:35:24.206Z,97712.94
2022-12-19T07:37:50.934Z,97707.13
2022-12-19T07:40:17.877Z,97707.13
2022-12-19T07:42:45.346Z,97720.75
2022-12-19T07:45:12.221Z,97712.94
2022-12-19T07:47:38.592Z,97703.66
2022-12-19T07:50:05.226Z,97708.88
2022-12-19T07:52:31.696Z,97699.59
2022-12-19T07:54:58.076Z,97697.03
2022-12-19T07:57:24.450Z,97688.59
2022-12-19T07:59:50.847Z,97691.22
2022-12-19T08:02:17.382Z,97692.91
2022-12-19T08:04:43.835Z,97685.16
2022-12-19T08:07:10.593Z,97684.34
2022-12-19T08:09:37.087Z,97691.97
2022-12-19T08:12:04.329Z,97682.47
2022-12-19T08:14:30.720Z,97681.50
2022-12-19T08:17:19.652Z,97682.31
2022-12-19T08:19:43.484Z,97692.59
2022-12-19T08:22:09.863Z,97687.59
2022-12-19T08:24:37.365Z,97683.97
2022-12-19T08:27:03.814Z,97694.09
2022-12-19T08:29:30.313Z,97689.03
2022-12-19T08:31:56.719Z,97688.13
2022-12-19T08:34:23.091Z,97689.75
2022-12-19T08:36:49.451Z,97687.22
2022-12-19T08:39:15.802Z,97682.22
2022-12-19T08:41:42.176Z,97679.72
2022-12-19T08:44:11.262Z,97677.97
2022-12-19T08:46:37.676Z,97680.50
2022-12-19T08:49:04.131Z,97678.06
2022-12-19T08:51:30.540Z,97679.81
2022-12-19T08:53:58.168Z,97683.97
2022-12-19T08:56:24.555Z,97679.56
2022-12-19T08:58:51.829Z,97671.78
2022-12-19T09:01:20.020Z,97674.31
2022-12-19T09:04:22.572Z,97675.09
2022-12-19T09:06:35.182Z,97676.81
2022-12-19T09:09:02.692Z,97669.84
2022-12-19T09:11:29.178Z,97660.44
2022-12-19T09:13:57.069Z,97655.31
2022-12-19T09:16:24.532Z,97659.47
2022-12-19T09:18:51.872Z,97650.91
2022-12-19T09:21:18.986Z,97647.38
2022-12-19T09:23:50.292Z,97652.38
2022-12-19T09:26:17.003Z,97653.78
2022-12-19T09:28:43.574Z,97647.69
2022-12-19T09:31:17.535Z,97635.72
2022-12-19T09:33:44.448Z,97626.13
2022-12-19T09:36:18.370Z,97621.75
2022-12-19T09:38:45.162Z,97629.25
2022-12-19T09:41:30.014Z,97614.59
2022-12-19T09:43:56.393Z,97609.31
2022-12-19T09:46:38.338Z,97609.03
2022-12-19T09:49:11.294Z,97608.66
2022-12-19T09:51:43.508Z,97589.63
2022-12-19T09:54:10.227Z,97594.41
2022-12-19T09:56:45.356Z,97587.22
2022-12-19T09:59:41.616Z,97579.19
2022-12-19T10:02:19.149Z,97578.94
2022-12-19T10:04:52.772Z,97583.97
2022-12-19T10:07:57.812Z,97583.69
2022-12-19T10:12:39.647Z,97598.03
2022-12-19T10:13:26.059Z,97590.09
2022-12-19T10:16:00.529Z,97588.09
2022-12-19T10:18:27.151Z,97572.41
2022-12-19T10:20:59.859Z,97561.06
2022-12-19T10:23:45.879Z,97551.44
2022-12-19T10:26:30.217Z,97530.72
2022-12-19T10:29:17.099Z,97513.41
2022-12-19T10:31:43.470Z,97525.97
2022-12-19T10:34:19.149Z,97525.63
2022-12-19T10:37:20.966Z,97538.22
2022-12-19T10:39:36.096Z,97533.56
2022-12-19T10:42:09.071Z,97536.38
2022-12-19T10:44:38.709Z,97535.16
2022-12-19T10:47:05.280Z,97539.41
2022-12-19T10:49:31.783Z,97545.69
2022-12-19T10:52:02.392Z,97530.84
2022-12-19T10:54:37.776Z,97530.47
2022-12-19T10:57:22.217Z,97522.63
2022-12-19T11:00:00.890Z,97518.09
2022-12-19T11:02:33.038Z,97505.22
2022-12-19T11:04:59.767Z,97509.16
2022-12-19T11:07:26.192Z,97498.81
2022-12-19T11:10:09.235Z,97483.94
2022-12-19T11:17:22.047Z,97486.94
2022-12-19T11:19:37.825Z,97478.97
2022-12-19T11:26:24.047Z,97467.59
2022-12-19T11:30:05.457Z,97472.91
2022-12-19T11:30:43.751Z,97475.75
2022-12-19T11:30:47.107Z,97478.13
2022-12-19T11:33:13.646Z,97473.66
2022-12-19T11:35:48.274Z,97477.34
2022-12-19T11:38:16.932Z,97460.41
2022-12-19T11:40:49.566Z,97464.25
2022-12-19T11:43:46.921Z,97449.28
2022-12-19T11:46:25.412Z,97448.41
2022-12-19T11:48:58.787Z,97452.06
2022-12-19T11:51:30.252Z,97447.09
2022-12-19T11:54:15.072Z,97444.00
2022-12-19T11:56:41.718Z,97445.31
2022-12-19T11:59:13.082Z,97439.66
2022-12-19T12:01:45.397Z,97431.44
2022-12-19T12:04:30.468Z,97419.97
2022-12-19T12:06:57.591Z,97426.44
2022-12-19T12:12:27.102Z,97419.28
2022-12-19T12:18:47.536Z,97425.81
2022-12-19T12:26:34.847Z,97426.34
2022-12-19T12:31:01.975Z,97425.25
2022-12-19T12:31:18.171Z,97427.63
2022-12-19T12:31:42.240Z,97417.97
2022-12-19T12:32:03.522Z,97420.31
2022-12-19T12:32:06.316Z,97423.94
2022-12-19T12:35:33.125Z,97428.75
2022-12-19T12:39:02.563Z,97424.00
2022-12-19T12:41:47.402Z,97416.25
2022-12-19T12:44:14.122Z,97400.97
2022-12-19T12:46:44.705Z,97393.31
2022-12-19T12:49:20.286Z,97393.38
2022-12-19T12:51:47.039Z,97389.72
2022-12-19T12:54:14.866Z,97390.47
2022-12-19T12:56:42.127Z,97392.00
2022-12-19T12:59:26.339Z,97395.34
2022-12-19T13:01:57.134Z,97389.06
2022-12-19T13:04:43.169Z,97383.13
2022-12-19T13:07:20.665Z,97397.84
2022-12-19T13:09:51.357Z,97393.41
2022-12-19T13:12:44.702Z,97385.41
2022-12-19T13:15:29.796Z,97383.25
2022-12-19T13:17:56.162Z,97381.81
2022-12-19T13:20:27.781Z,97386.16
2022-12-19T13:23:02.913Z,97374.13
2022-12-19T13:25:32.340Z,97376.81
2022-12-19T13:28:01.749Z,97374.81
2022-12-19T13:30:32.352Z,97381.50
2022-12-19T13:33:13.097Z,97377.59
2022-12-19T13:39:46.464Z,97379.31
2022-12-19T13:40:00.501Z,97387.00
2022-12-19T13:41:48.163Z,97386.09
2022-12-19T13:44:18.155Z,97387.19
2022-12-19T13:46:46.013Z,97388.78
2022-12-19T13:49:19.120Z,97382.00
2022-12-19T13:51:47.662Z,97381.25
2022-12-19T13:54:20.207Z,97381.31
2022-12-19T13:56:46.719Z,97377.16
2022-12-19T13:59:13.161Z,97382.81
2022-12-19T14:01:40.502Z,97384.66
2022-12-19T14:04:09.134Z,97390.00
2022-12-19T14:06:40.163Z,97385.81
2022-12-19T14:11:25.457Z,97378.38
2022-12-19T14:13:46.232Z,97376.09
2022-12-19T14:15:13.758Z,97374.53
2022-12-19T14:17:40.575Z,97364.44
2022-12-19T14:22:05.225Z,97374.91
2022-12-19T14:23:05.014Z,97375.94
2022-12-19T14:28:16.744Z,97370.59
2022-12-19T14:28:54.957Z,97370.91
2022-12-19T14:31:23.673Z,97380.06
2022-12-19T14:34:18.997Z,97371.69
2022-12-19T14:36:40.022Z,97370.19
2022-12-19T14:39:24.039Z,97367.19
2022-12-19T14:42:19.096Z,97363.06
2022-12-19T14:53:52.384Z,97364.84
2022-12-19T14:54:13.171Z,97360.94
2022-12-19T14:54:22.927Z,97358.56
2022-12-19T14:54:31.208Z,97360.38
2022-12-19T14:59:05.631Z,97369.03
2022-12-19T15:01:34.072Z,97364.16
2022-12-19T15:04:50.609Z,97361.28
2022-12-19T15:07:09.010Z,97364.72
2022-12-19T15:10:58.484Z,97372.31
2022-12-19T15:13:47.405Z,97371.63
2022-12-19T15:15:38.718Z,97375.13
2022-12-19T15:18:18.074Z,97363.28
2022-12-19T15:20:44.445Z,97361.56
2022-12-19T15:23:14.027Z,97363.34
2022-12-19T15:26:03.330Z,97359.31
2022-12-19T15:28:43.204Z,97358.69
2022-12-19T15:31:15.677Z,97349.91
2022-12-19T15:34:06.807Z,97349.31
2022-12-19T15:36:28.521Z,97356.13
2022-12-19T15:38:54.917Z,97346.72
2022-12-19T15:41:22.808Z,97353.91
2022-12-19T15:44:07.020Z,97350.66
2022-12-19T15:46:33.775Z,97350.56
2022-12-19T15:49:01.024Z,97350.78
2022-12-19T15:51:27.427Z,97336.38
2022-12-19T15:53:56.933Z,97338.97
2022-12-19T15:56:32.666Z,97346.91
2022-12-19T15:59:00.605Z,97345.47
2022-12-19T16:01:27.711Z,97350.56
2022-12-19T16:03:56.513Z,97340.34
2022-12-19T16:06:23.121Z,97337.84
2022-12-19T16:08:49.557Z,97332.00
2022-12-19T16:11:20.653Z,97328.72
2022-12-19T16:13:50.604Z,97329.66
2022-12-19T16:16:17.248Z,97328.00
2022-12-19T16:18:44.593Z,97322.97
2022-12-19T16:21:18.271Z,97323.94
2022-12-19T16:23:44.860Z,97318.03
2022-12-19T16:26:30.314Z,97306.13
2022-12-19T16:28:57.028Z,97304.75
2022-12-19T16:31:24.796Z,97304.75
2022-12-19T16:33:51.228Z,97298.03
2022-12-19T16:36:17.631Z,97304.31
2022-12-19T16:38:44.037Z,97291.66
2022-12-19T16:41:15.850Z,97296.81
2022-12-19T16:43:43.676Z,97285.81
2022-12-19T16:46:15.666Z,97297.13
2022-12-19T16:48:42.059Z,97283.31
2022-12-19T16:51:16.377Z,97301.34
2022-12-19T16:53:42.740Z,97288.16
2022-12-19T16:56:16.464Z,97280.16
2022-12-19T16:58:43.388Z,97304.91
2022-12-19T17:01:10.467Z,97295.41
2022-12-19T17:03:42.013Z,97290.25
2022-12-19T17:06:12.796Z,97299.44
2022-12-19T17:08:39.422Z,97296.72
2022-12-19T17:11:07.960Z,97300.81
2022-12-19T17:13:34.594Z,97291.28
2022-12-19T17:16:01.213Z,97293.53
2022-12-19T17:18:31.592Z,97293.53
2022-12-19T17:20:58.032Z,97291.72
2022-12-19T17:23:25.106Z,97282.25
2022-12-19T17:25:51.807Z,97277.09
2022-12-19T17:28:18.229Z,97276.41
2022-12-19T17:30:48.793Z,97279.00
2022-12-19T17:33:16.007Z,97267.84
2022-12-19T17:35:42.927Z,97276.63
2022-12-19T17:38:12.098Z,97264.03
2022-12-19T17:40:38.831Z,97262.56
2022-12-19T17:43:05.320Z,97267.03
2022-12-19T17:45:33.263Z,97263.06
2022-12-19T17:48:05.520Z,97262.53
2022-12-19T17:50:37.424Z,97265.88
2022-12-19T17:53:04.002Z,97263.22
2022-12-19T17:55:30.797Z,97267.41
2022-12-19T17:57:57.717Z,97252.75
2022-12-19T18:00:30.414Z,97259.59
2022-12-19T18:02:59.484Z,97254.28
2022-12-19T18:05:27.493Z,97257.72
2022-12-19T18:07:54.127Z,97248.19
2022-12-19T18:10:24.618Z,97255.84
2022-12-19T18:12:51.590Z,97253.19
2022-12-19T18:15:18.379Z,97249.59
2022-12-19T18:17:45.413Z,97258.34
2022-12-19T18:20:19.634Z,97249.59
2022-12-19T18:22:46.621Z,97253.03
2022-12-19T18:25:17.473Z,97250.38
2022-12-19T18:27:43.997Z,97247.72
2022-12-19T18:30:14.646Z,97245.06
2022-12-19T18:32:42.309Z,97241.28
2022-12-19T18:35:13.962Z,97226.22
2022-12-19T18:37:40.420Z,97231.66
2022-12-19T18:40:33.034Z,97229.44
2022-12-19T18:43:00.191Z,97241.28
2022-12-19T18:45:30.781Z,97234.00
2022-12-19T18:47:59.308Z,97227.59
2022-12-19T18:50:26.452Z,97224.56
2022-12-19T18:52:53.418Z,97218.91
2022-12-19T18:55:24.220Z,97227.19
2022-12-19T18:57:50.764Z,97217.13
2022-12-19T19:00:18.338Z,97224.72
2022-12-19T19:03:02.466Z,97230.34
2022-12-19T19:05:30.235Z,97221.44
2022-12-19T19:07:57.982Z,97214.63
2022-12-19T19:10:25.730Z,97217.72
2022-12-19T19:12:52.243Z,97224.31
2022-12-19T19:15:19.478Z,97221.72
2022-12-19T19:17:47.481Z,97217.31
2022-12-19T19:20:14.099Z,97218.81
2022-12-19T19:22:40.484Z,97215.91
2022-12-19T19:25:07.158Z,97213.16
2022-12-19T19:27:33.782Z,97211.16
2022-12-19T19:30:00.207Z,97211.81
2022-12-19T19:32:26.840Z,97203.81
2022-12-19T19:34:53.325Z,97213.06
2022-12-19T19:37:19.758Z,97216.56
2022-12-19T19:39:46.135Z,97213.97
2022-12-19T19:42:12.579Z,97206.56
2022-12-19T19:44:39.301Z,97209.47
2022-12-19T19:47:05.737Z,97211.16
2022-12-19T19:49:32.211Z,97200.81
2022-12-19T19:52:02.572Z,97201.81
2022-12-19T19:54:29.943Z,97197.47
2022-12-19T19:56:56.384Z,97192.47
2022-12-19T19:59:22.779Z,97193.06
2022-12-19T20:01:54.176Z,97185.44
2022-12-19T20:04:20.961Z,97190.38
2022-12-19T20:06:47.409Z,97183.28
2022-12-19T20:09:13.867Z,97165.00
2022-12-19T20:11:40.253Z,97164.00
2022-12-19T20:14:06.712Z,97156.09
2022-12-19T20:16:33.690Z,97170.41
2022-12-19T20:19:00.137Z,97171.91
2022-12-19T20:21:26.661Z,97169.88
2022-12-19T20:23:53.522Z,97164.44
2022-12-19T20:26:20.237Z,97157.34
2022-12-19T20:28:49.579Z,97167.69
2022-12-19T20:31:20.688Z,97169.94
2022-12-19T20:33:48.406Z,97159.97
2022-12-19T20:36:15.505Z,97158.88
2022-12-19T20:38:42.189Z,97181.78
2022-12-19T20:41:08.732Z,97183.28
2022-12-19T20:43:35.635Z,97175.25
2022-12-19T20:46:06.559Z,97180.69
2022-12-19T20:48:33.097Z,97183.78
2022-12-19T20:51:00.218Z,97190.34
2022-12-19T20:53:27.114Z,97189.16
2022-12-19T20:55:57.825Z,97181.28
2022-12-19T20:58:25.267Z,97177.03
2022-12-19T21:00:54.653Z,97177.59
2022-12-19T21:03:29.833Z,97175.75
2022-12-19T21:05:57.240Z,97176.22
2022-12-19T21:08:24.242Z,97161.50
2022-12-19T21:10:50.721Z,97175.94
2022-12-19T21:13:17.483Z,97171.09
2022-12-19T21:15:43.931Z,97163.06
2022-12-19T21:18:10.565Z,97167.97
2022-12-19T21:20:38.150Z,97158.16
2022-12-19T21:23:04.858Z,97153.63
2022-12-19T21:25:31.247Z,97161.09
2022-12-19T21:27:58.311Z,97147.03
2022-12-19T21:30:25.024Z,97149.31
2022-12-19T21:32:51.455Z,97142.28
2022-12-19T21:35:17.898Z,97131.72
2022-12-19T21:37:50.036Z,97132.38
2022-12-19T21:40:16.899Z,97131.25
2022-12-19T21:42:43.360Z,97133.53
2022-12-19T21:45:10.082Z,97123.91
2022-12-19T21:47:39.356Z,97122.06
2022-12-19T21:50:07.151Z,97123.63
2022-12-19T21:52:33.540Z,97114.94
2022-12-19T21:54:59.944Z,97111.38
2022-12-19T21:57:26.352Z,97116.91
2022-12-19T21:59:52.768Z,97116.63
2022-12-19T22:02:19.349Z,97114.78
2022-12-19T22:04:45.807Z,97110.22
2022-12-19T22:07:12.209Z,97110.88
2022-12-19T22:09:38.623Z,97104.72
2022-12-19T22:12:05.078Z,97107.00
2022-12-19T22:14:31.455Z,97101.56
2022-12-19T22:16:58.551Z,97094.41
2022-12-19T22:19:25.040Z,97100.13
2022-12-19T22:21:51.475Z,97097.09
2022-12-19T22:24:17.963Z,97096.78
2022-12-19T22:26:45.094Z,97102.63
2022-12-19T22:29:13.787Z,97097.13
2022-12-19T22:31:40.821Z,97100.25
2022-12-19T22:34:11.054Z,97088.81
2022-12-19T22:36:38.802Z,97086.97
2022-12-19T22:39:07.391Z,97087.38
2022-12-19T22:41:34.435Z,97077.63
2022-12-19T22:44:00.871Z,97077.41
2022-12-19T22:46:29.139Z,97080.41
2022-12-19T22:48:56.867Z,97078.44
2022-12-19T22:51:23.317Z,97079.91
2022-12-19T22:53:49.905Z,97071.16
2022-12-19T22:56:20.860Z,97070.16
2022-12-19T22:58:48.756Z,97070.31
2022-12-19T23:01:19.699Z,97059.03
2022-12-19T23:03:47.957Z,97055.38
2022-12-19T23:06:15.075Z,97053.59
2022-12-19T23:08:41.641Z,97059.53
2022-12-19T23:11:09.619Z,97056.72
2022-12-19T23:13:36.007Z,97053.38
2022-12-19T23:16:02.447Z,97055.59
2022-12-19T23:18:29.041Z,97058.06
2022-12-19T23:21:09.255Z,97040.59
2022-12-19T23:23:39.395Z,97044.97
2022-12-19T23:26:11.296Z,97048.06
2022-12-19T23:28:42.508Z,97038.53
2022-12-19T23:31:10.121Z,97034.75
2022-12-19T23:33:36.922Z,97025.91
2022-12-19T23:36:04.642Z,97022.38
2022-12-19T23:38:31.266Z,97027.16
2022-12-19T23:41:02.030Z,97033.03
2022-12-19T23:43:29.116Z,97026.59
2022-12-19T23:45:55.740Z,97021.38
2022-12-19T23:48:25.529Z,97018.56
2022-12-19T23:51:02.043Z,97016.69
2022-12-19T23:53:28.965Z,97016.59
2022-12-19T23:55:55.413Z,97020.03
2022-12-19T23:58:24.595Z,97012.84
